Time;durP1;ratioP1;P1;durP2;ratioP2;P2;SDS_P1;SDS_P2;PMS_P1;PMS_P2;Temp;Humidity;BMP_temperature;BMP_pressure;BME280_temperature;BME280_humidity;BME280_pressure;Samples;Min_cycle;Max_cycle;Signal;HPM_P1;HPM_P2
2020/12/15 00:01:48;;;;;;;10.93;5.23;;;;;;;;;;5010307;28;20033;-79
2020/12/15 00:04:14;;;;;;;7.93;5.00;;;;;;;;;;5009720;28;20026;-80
2020/12/15 00:06:41;;;;;;;10.93;4.90;;;;;;;;;;5011164;28;20383;-79
2020/12/15 00:09:07;;;;;;;9.47;5.47;;;;;;;;;;5017136;28;20324;-80
2020/12/15 00:11:33;;;;;;;11.43;6.30;;;;;;;;;;5009181;28;20335;-79
2020/12/15 00:13:59;;;;;;;9.67;5.37;;;;;;;;;;5011301;28;20296;-79
2020/12/15 00:16:25;;;;;;;10.47;5.03;;;;;;;;;;5012071;28;20265;-80
2020/12/15 00:18:51;;;;;;;9.17;4.80;;;;;;;;;;5009240;28;20264;-79
2020/12/15 00:21:21;;;;;;;8.83;5.07;;;;;;;;;;5014057;28;20268;-79
2020/12/15 00:23:49;;;;;;;8.50;5.63;;;;;;;;;;5019380;28;20272;-80
2020/12/15 00:26:15;;;;;;;12.13;5.70;;;;;;;;;;5005099;28;20909;-80
2020/12/15 00:28:42;;;;;;;14.80;5.73;;;;;;;;;;5007574;28;20034;-79
2020/12/15 00:31:08;;;;;;;12.83;6.23;;;;;;;;;;5007570;28;20293;-80
2020/12/15 00:33:34;;;;;;;10.43;5.63;;;;;;;;;;5011319;28;21065;-79
2020/12/15 00:36:00;;;;;;;10.27;5.87;;;;;;;;;;5014202;28;20283;-80
2020/12/15 00:38:27;;;;;;;8.47;5.40;;;;;;;;;;5006642;28;20710;-80
2020/12/15 00:40:53;;;;;;;12.77;6.23;;;;;;;;;;5011668;28;20414;-79
2020/12/15 00:43:19;;;;;;;9.67;5.20;;;;;;;;;;5009079;28;20171;-78
2020/12/15 00:45:45;;;;;;;11.17;6.37;;;;;;;;;;5007704;28;20037;-77
2020/12/15 00:48:12;;;;;;;10.33;5.87;;;;;;;;;;5006169;28;20026;-77
2020/12/15 00:50:38;;;;;;;10.93;5.53;;;;;;;;;;5012570;28;20356;-78
2020/12/15 00:53:04;;;;;;;14.10;6.20;;;;;;;;;;5007564;28;20552;-78
2020/12/15 00:55:30;;;;;;;9.80;5.30;;;;;;;;;;5009628;28;21126;-77
2020/12/15 00:57:58;;;;;;;9.93;5.50;;;;;;;;;;5009256;28;20030;-77
2020/12/15 01:00:24;;;;;;;11.30;6.03;;;;;;;;;;5016246;28;20034;-77
2020/12/15 01:02:50;;;;;;;11.07;5.27;;;;;;;;;;5004985;28;20412;-77
2020/12/15 01:05:16;;;;;;;9.70;5.67;;;;;;;;;;5002928;28;20030;-78
2020/12/15 01:07:42;;;;;;;13.37;6.53;;;;;;;;;;5008654;28;20629;-77
2020/12/15 01:10:08;;;;;;;9.93;5.40;;;;;;;;;;5010932;28;20141;-77
2020/12/15 01:12:34;;;;;;;9.93;5.70;;;;;;;;;;5018214;28;20040;-77
2020/12/15 01:15:01;;;;;;;11.40;6.37;;;;;;;;;;5020636;28;20790;-78
2020/12/15 01:17:27;;;;;;;9.00;6.50;;;;;;;;;;5009886;28;20271;-78
2020/12/15 01:19:53;;;;;;;10.07;6.20;;;;;;;;;;5006098;28;20277;-78
2020/12/15 01:22:19;;;;;;;12.00;7.00;;;;;;;;;;5018783;28;20343;-79
2020/12/15 01:24:45;;;;;;;10.33;6.13;;;;;;;;;;5005257;28;20271;-78
2020/12/15 01:27:11;;;;;;;11.47;5.70;;;;;;;;;;5008251;28;21849;-78
2020/12/15 01:29:37;;;;;;;12.23;7.27;;;;;;;;;;5014456;28;20269;-77
2020/12/15 01:32:04;;;;;;;10.60;6.70;;;;;;;;;;5010383;28;20335;-78
2020/12/15 01:34:30;;;;;;;11.17;6.87;;;;;;;;;;4999854;28;20621;-78
2020/12/15 01:36:57;;;;;;;12.87;8.43;;;;;;;;;;5006115;28;20331;-79
2020/12/15 01:39:24;;;;;;;10.10;6.40;;;;;;;;;;5001765;28;20277;-79
2020/12/15 01:41:50;;;;;;;8.33;6.03;;;;;;;;;;5028152;28;20364;-78
2020/12/15 01:44:16;;;;;;;12.70;6.87;;;;;;;;;;5011575;28;20291;-78
2020/12/15 01:46:42;;;;;;;9.47;6.23;;;;;;;;;;5008694;28;20284;-79
2020/12/15 01:49:09;;;;;;;13.27;6.03;;;;;;;;;;5010051;28;20284;-78
2020/12/15 01:51:35;;;;;;;10.80;6.70;;;;;;;;;;5015456;28;20919;-78
2020/12/15 01:54:03;;;;;;;11.00;6.27;;;;;;;;;;5006868;28;20359;-78
2020/12/15 01:56:30;;;;;;;11.50;6.63;;;;;;;;;;5011307;28;20280;-78
2020/12/15 01:58:57;;;;;;;13.00;6.70;;;;;;;;;;5009619;28;20802;-79
2020/12/15 02:01:23;;;;;;;9.43;5.77;;;;;;;;;;5005212;28;20301;-79
2020/12/15 02:03:53;;;;;;;9.80;6.73;;;;;;;;;;5009281;28;20338;-79
2020/12/15 02:06:19;;;;;;;10.93;6.20;;;;;;;;;;5023550;28;20306;-78
2020/12/15 02:08:46;;;;;;;10.80;6.50;;;;;;;;;;5020488;28;20276;-79
2020/12/15 02:11:12;;;;;;;9.63;5.67;;;;;;;;;;5024504;28;20265;-78
2020/12/15 02:13:39;;;;;;;10.53;6.10;;;;;;;;;;5011036;28;20947;-80
2020/12/15 02:16:06;;;;;;;11.73;6.20;;;;;;;;;;5009025;28;20280;-78
2020/12/15 02:18:34;;;;;;;10.33;6.17;;;;;;;;;;5014704;28;20418;-79
2020/12/15 02:21:05;;;;;;;11.43;6.00;;;;;;;;;;5009179;28;20445;-78
2020/12/15 02:23:31;;;;;;;9.67;5.60;;;;;;;;;;5010370;28;20363;-78
2020/12/15 02:25:57;;;;;;;9.83;5.60;;;;;;;;;;5010008;28;20343;-78
2020/12/15 02:28:24;;;;;;;10.10;5.80;;;;;;;;;;5011623;28;20297;-78
2020/12/15 02:30:50;;;;;;;8.97;5.70;;;;;;;;;;5018529;28;20272;-78
2020/12/15 02:33:16;;;;;;;13.47;7.00;;;;;;;;;;5007962;28;20281;-79
2020/12/15 02:35:42;;;;;;;20.67;7.87;;;;;;;;;;5018446;28;20280;-78
2020/12/15 02:38:08;;;;;;;10.43;6.47;;;;;;;;;;5014484;28;20355;-78
2020/12/15 02:40:34;;;;;;;11.10;6.33;;;;;;;;;;5016127;28;20060;-78
2020/12/15 02:43:00;;;;;;;8.87;5.40;;;;;;;;;;5010965;28;20664;-78
2020/12/15 02:45:26;;;;;;;10.73;6.27;;;;;;;;;;5009650;28;20038;-79
2020/12/15 02:47:52;;;;;;;9.40;5.97;;;;;;;;;;5009747;28;20268;-78
2020/12/15 02:50:21;;;;;;;8.07;5.33;;;;;;;;;;5008156;28;20029;-79
2020/12/15 02:52:49;;;;;;;11.67;6.23;;;;;;;;;;5010068;28;20505;-78
2020/12/15 02:55:16;;;;;;;9.40;6.17;;;;;;;;;;5007645;28;20744;-77
2020/12/15 02:57:42;;;;;;;9.97;5.90;;;;;;;;;;5012945;28;20273;-77
2020/12/15 03:00:11;;;;;;;10.07;6.00;;;;;;;;;;5007570;28;20287;-78
2020/12/15 03:02:37;;;;;;;9.37;5.17;;;;;;;;;;5009579;28;20343;-78
2020/12/15 03:05:04;;;;;;;9.70;5.40;;;;;;;;;;5021357;28;20268;-78
2020/12/15 03:07:30;;;;;;;7.93;5.20;;;;;;;;;;5012926;28;20253;-77
2020/12/15 03:09:56;;;;;;;8.10;5.10;;;;;;;;;;5015695;28;20320;-78
2020/12/15 03:12:23;;;;;;;8.50;4.60;;;;;;;;;;5008778;28;20437;-78
2020/12/15 03:14:50;;;;;;;10.27;6.07;;;;;;;;;;5009339;28;20261;-78
2020/12/15 03:17:17;;;;;;;8.37;4.90;;;;;;;;;;5003956;28;20280;-77
2020/12/15 03:19:43;;;;;;;7.47;4.67;;;;;;;;;;5004744;28;20363;-78
2020/12/15 03:22:10;;;;;;;8.27;5.00;;;;;;;;;;5000152;28;20264;-77
2020/12/15 03:24:37;;;;;;;9.10;5.23;;;;;;;;;;5015943;28;20048;-78
2020/12/15 03:27:03;;;;;;;9.10;5.23;;;;;;;;;;5018666;28;20025;-78
2020/12/15 03:29:29;;;;;;;10.67;5.87;;;;;;;;;;5015309;28;20289;-77
2020/12/15 03:31:55;;;;;;;8.83;4.87;;;;;;;;;;5014930;28;20066;-77
2020/12/15 03:34:21;;;;;;;9.80;5.13;;;;;;;;;;5012005;28;20759;-78
2020/12/15 03:36:48;;;;;;;9.83;5.27;;;;;;;;;;5022329;28;20346;-79
2020/12/15 03:39:14;;;;;;;9.77;5.20;;;;;;;;;;5009699;28;20076;-76
2020/12/15 03:41:40;;;;;;;9.83;5.87;;;;;;;;;;5018777;28;20337;-78
2020/12/15 03:44:06;;;;;;;9.90;6.00;;;;;;;;;;5008793;28;20396;-78
2020/12/15 03:46:32;;;;;;;8.20;5.10;;;;;;;;;;5008183;28;20281;-77
2020/12/15 03:48:58;;;;;;;9.03;5.87;;;;;;;;;;5017130;28;20287;-77
2020/12/15 03:51:24;;;;;;;8.43;5.70;;;;;;;;;;5004136;28;20796;-78
2020/12/15 03:53:50;;;;;;;10.70;6.17;;;;;;;;;;5001204;28;20284;-77
2020/12/15 03:56:17;;;;;;;12.47;6.43;;;;;;;;;;5006348;28;20277;-77
2020/12/15 03:58:43;;;;;;;13.93;6.80;;;;;;;;;;5020559;28;20268;-78
2020/12/15 04:01:09;;;;;;;8.60;5.73;;;;;;;;;;5007255;28;20340;-77
2020/12/15 04:03:35;;;;;;;15.10;7.17;;;;;;;;;;5007649;28;20284;-78
2020/12/15 04:06:01;;;;;;;9.67;5.77;;;;;;;;;;5021545;28;20284;-78
2020/12/15 04:08:27;;;;;;;12.70;7.83;;;;;;;;;;5011843;28;20281;-78
2020/12/15 04:10:53;;;;;;;13.13;8.80;;;;;;;;;;5014955;28;20261;-78
2020/12/15 04:13:20;;;;;;;11.67;7.80;;;;;;;;;;5005295;28;20264;-77
2020/12/15 04:15:46;;;;;;;12.60;8.10;;;;;;;;;;5020558;28;20274;-77
2020/12/15 04:18:12;;;;;;;13.87;7.27;;;;;;;;;;5009911;28;20277;-78
2020/12/15 04:20:39;;;;;;;12.17;7.40;;;;;;;;;;5010180;28;20272;-78
2020/12/15 04:23:05;;;;;;;11.93;7.53;;;;;;;;;;5004003;28;20299;-78
2020/12/15 04:25:31;;;;;;;22.67;12.30;;;;;;;;;;5010136;28;20390;-79
2020/12/15 04:27:57;;;;;;;17.23;8.70;;;;;;;;;;5020000;28;20363;-78
2020/12/15 04:30:23;;;;;;;12.80;7.73;;;;;;;;;;5009021;28;20265;-78
2020/12/15 04:32:49;;;;;;;10.87;6.87;;;;;;;;;;5015421;28;20280;-78
2020/12/15 04:35:15;;;;;;;10.87;7.30;;;;;;;;;;5018531;28;20261;-78
2020/12/15 04:37:43;;;;;;;11.00;6.53;;;;;;;;;;5008203;28;20283;-76
2020/12/15 04:40:09;;;;;;;16.10;7.60;;;;;;;;;;5014429;28;20302;-77
2020/12/15 04:42:35;;;;;;;11.70;6.00;;;;;;;;;;5009860;28;20272;-78
2020/12/15 04:45:03;;;;;;;10.27;5.70;;;;;;;;;;5007294;28;20715;-78
2020/12/15 04:47:29;;;;;;;10.33;6.17;;;;;;;;;;5012161;28;20265;-77
2020/12/15 04:49:59;;;;;;;8.47;5.00;;;;;;;;;;5012025;28;20087;-77
2020/12/15 04:52:30;;;;;;;8.83;5.27;;;;;;;;;;5009807;28;20256;-78
2020/12/15 04:54:56;;;;;;;8.67;5.00;;;;;;;;;;5019169;28;20022;-78
2020/12/15 04:57:22;;;;;;;9.33;5.57;;;;;;;;;;5019186;28;20287;-78
2020/12/15 04:59:49;;;;;;;9.63;5.40;;;;;;;;;;5013595;28;20264;-77
2020/12/15 05:02:16;;;;;;;9.77;5.87;;;;;;;;;;5004892;28;20269;-76
2020/12/15 05:04:43;;;;;;;13.97;6.53;;;;;;;;;;5008680;28;20268;-77
2020/12/15 05:07:10;;;;;;;12.40;6.77;;;;;;;;;;5003389;28;20299;-78
2020/12/15 05:09:37;;;;;;;11.90;6.67;;;;;;;;;;5006210;28;20288;-77
2020/12/15 05:12:04;;;;;;;11.57;6.00;;;;;;;;;;5012068;28;20304;-77
2020/12/15 05:14:30;;;;;;;12.27;7.70;;;;;;;;;;5008547;28;20297;-77
2020/12/15 05:16:56;;;;;;;12.40;7.43;;;;;;;;;;4999728;28;20158;-77
2020/12/15 05:19:24;;;;;;;14.97;7.47;;;;;;;;;;5006914;28;20276;-77
2020/12/15 05:21:53;;;;;;;16.87;8.20;;;;;;;;;;5014880;28;20368;-77
2020/12/15 05:24:23;;;;;;;14.17;8.27;;;;;;;;;;5016691;28;20287;-78
2020/12/15 05:26:50;;;;;;;13.77;8.73;;;;;;;;;;5010058;28;20501;-78
2020/12/15 05:29:20;;;;;;;12.80;8.17;;;;;;;;;;5004293;28;20265;-78
2020/12/15 05:31:46;;;;;;;12.77;8.33;;;;;;;;;;5020813;28;20580;-78
2020/12/15 05:34:20;;;;;;;15.13;8.53;;;;;;;;;;5009368;28;20260;-79
2020/12/15 05:36:59;;;;;;;12.67;8.67;;;;;;;;;;5007060;28;20281;-78
2020/12/15 05:39:26;;;;;;;14.50;9.93;;;;;;;;;;5013306;28;20049;-78
2020/12/15 05:42:04;;;;;;;15.53;8.60;;;;;;;;;;5017642;28;20801;-78
2020/12/15 05:44:33;;;;;;;14.37;9.50;;;;;;;;;;5012616;28;20279;-81
2020/12/15 05:47:00;;;;;;;15.97;9.47;;;;;;;;;;5018454;28;21051;-81
2020/12/15 05:49:27;;;;;;;13.07;8.33;;;;;;;;;;5019923;28;20268;-81
2020/12/15 05:51:53;;;;;;;15.80;8.67;;;;;;;;;;5027932;28;20367;-81
2020/12/15 05:54:19;;;;;;;11.97;8.23;;;;;;;;;;5021519;28;20334;-78
2020/12/15 05:56:46;;;;;;;14.27;8.53;;;;;;;;;;5010033;28;20283;-78
2020/12/15 05:59:19;;;;;;;18.77;9.00;;;;;;;;;;5009129;28;20322;-78
2020/12/15 06:01:46;;;;;;;15.43;10.15;;;;;;;;;;5014756;28;20271;-78
2020/12/15 06:04:13;;;;;;;16.27;9.50;;;;;;;;;;5011763;28;20141;-77
2020/12/15 06:06:40;;;;;;;13.83;8.07;;;;;;;;;;5015715;28;20663;-78
2020/12/15 06:09:08;;;;;;;14.47;9.37;;;;;;;;;;4988072;28;775454;-78
2020/12/15 06:11:37;;;;;;;13.53;8.33;;;;;;;;;;5021172;28;20273;-78
2020/12/15 06:14:03;;;;;;;13.77;9.17;;;;;;;;;;5019192;28;20260;-78
2020/12/15 06:16:29;;;;;;;15.30;8.80;;;;;;;;;;5018504;28;20311;-81
2020/12/15 06:18:56;;;;;;;16.73;9.10;;;;;;;;;;5018101;28;20299;-80
2020/12/15 06:21:27;;;;;;;14.97;9.47;;;;;;;;;;5024869;28;20284;-81
2020/12/15 06:24:02;;;;;;;12.47;8.30;;;;;;;;;;5016417;28;20787;-80
2020/12/15 06:26:29;;;;;;;13.40;9.10;;;;;;;;;;5018376;28;20299;-81
2020/12/15 06:29:06;;;;;;;12.93;8.17;;;;;;;;;;5017820;28;20330;-79
2020/12/15 06:31:33;;;;;;;13.77;8.30;;;;;;;;;;5015201;28;20723;-79
2020/12/15 06:34:00;;;;;;;12.87;8.47;;;;;;;;;;5009966;28;20297;-78
2020/12/15 06:36:27;;;;;;;14.50;8.90;;;;;;;;;;5022433;28;20279;-80
2020/12/15 06:38:53;;;;;;;12.33;8.30;;;;;;;;;;5012412;28;20316;-78
2020/12/15 06:41:21;;;;;;;14.43;8.60;;;;;;;;;;5013014;28;20443;-78
2020/12/15 06:43:47;;;;;;;12.53;8.00;;;;;;;;;;5007875;28;20367;-78
2020/12/15 06:46:28;;;;;;;11.50;7.27;;;;;;;;;;5008050;28;20323;-77
2020/12/15 06:48:55;;;;;;;12.70;6.63;;;;;;;;;;5010323;28;21063;-78
2020/12/15 06:51:31;;;;;;;12.43;7.70;;;;;;;;;;5008820;28;20284;-77
2020/12/15 06:54:05;;;;;;;15.63;9.10;;;;;;;;;;5008075;28;21071;-78
2020/12/15 06:56:32;;;;;;;12.37;7.20;;;;;;;;;;5011117;28;20284;-77
2020/12/15 06:59:02;;;;;;;12.20;8.90;;;;;;;;;;5009642;28;20269;-78
2020/12/15 07:01:29;;;;;;;14.20;8.00;;;;;;;;;;5009481;28;20279;-76
2020/12/15 07:03:59;;;;;;;13.80;7.77;;;;;;;;;;5008724;28;20272;-78
2020/12/15 07:06:25;;;;;;;16.47;8.13;;;;;;;;;;5011024;28;20289;-78
2020/12/15 07:09:06;;;;;;;12.57;7.50;;;;;;;;;;5008842;28;20312;-78
2020/12/15 07:11:32;;;;;;;14.13;8.07;;;;;;;;;;5004868;28;20324;-78
2020/12/15 07:14:00;;;;;;;12.87;8.60;;;;;;;;;;4990177;28;20269;-77
2020/12/15 07:16:26;;;;;;;15.07;9.53;;;;;;;;;;5021110;28;20272;-78
2020/12/15 07:18:52;;;;;;;12.87;7.77;;;;;;;;;;5001571;28;20837;-78
2020/12/15 07:21:21;;;;;;;12.20;7.07;;;;;;;;;;5000848;28;20320;-78
2020/12/15 07:23:50;;;;;;;11.13;7.47;;;;;;;;;;5008289;28;20870;-77
2020/12/15 07:26:18;;;;;;;14.10;7.97;;;;;;;;;;5009601;28;20296;-80
2020/12/15 07:28:44;;;;;;;12.73;8.50;;;;;;;;;;5010394;28;20261;-79
2020/12/15 07:31:11;;;;;;;25.17;18.23;;;;;;;;;;5008610;28;20289;-79
2020/12/15 07:33:38;;;;;;;18.77;10.87;;;;;;;;;;5009249;28;20265;-79
2020/12/15 07:36:18;;;;;;;13.27;8.47;;;;;;;;;;5008932;28;20319;-79
2020/12/15 07:38:45;;;;;;;13.73;8.40;;;;;;;;;;5008354;28;20625;-78
2020/12/15 07:41:15;;;;;;;15.67;8.67;;;;;;;;;;5010669;28;20026;-79
2020/12/15 07:44:01;;;;;;;18.03;9.77;;;;;;;;;;5022123;28;20811;-79
2020/12/15 07:46:27;;;;;;;15.90;8.47;;;;;;;;;;5018832;28;20121;-79
2020/12/15 07:48:55;;;;;;;28.53;14.17;;;;;;;;;;5016229;28;20037;-78
2020/12/15 07:51:21;;;;;;;20.77;10.03;;;;;;;;;;4993790;28;20038;-78
2020/12/15 07:53:54;;;;;;;13.33;7.97;;;;;;;;;;4999515;28;20078;-78
2020/12/15 07:56:21;;;;;;;14.38;8.68;;;;;;;;;;5006699;28;20351;-78
2020/12/15 07:58:52;;;;;;;12.70;7.93;;;;;;;;;;5008895;28;20037;-80
2020/12/15 08:01:25;;;;;;;12.07;7.37;;;;;;;;;;5009258;28;20030;-78
2020/12/15 08:04:00;;;;;;;14.30;8.05;;;;;;;;;;5008143;28;20273;-79
2020/12/15 08:06:28;;;;;;;12.57;7.40;;;;;;;;;;5009391;28;20028;-80
2020/12/15 08:08:55;;;;;;;11.57;7.33;;;;;;;;;;5009125;28;20299;-79
2020/12/15 08:11:21;;;;;;;12.50;7.90;;;;;;;;;;5010164;28;20257;-79
2020/12/15 08:13:47;;;;;;;17.60;8.13;;;;;;;;;;5017563;28;20272;-78
2020/12/15 08:16:14;;;;;;;13.13;7.73;;;;;;;;;;5007727;28;20787;-78
2020/12/15 08:18:41;;;;;;;14.00;8.60;;;;;;;;;;5010126;28;20076;-79
2020/12/15 08:21:07;;;;;;;10.80;7.43;;;;;;;;;;5008553;28;20605;-78
2020/12/15 08:23:35;;;;;;;12.50;7.60;;;;;;;;;;5009450;28;20667;-79
2020/12/15 08:26:03;;;;;;;13.40;7.13;;;;;;;;;;5012496;28;20303;-79
2020/12/15 08:28:29;;;;;;;11.87;7.00;;;;;;;;;;5008188;28;20022;-78
2020/12/15 08:30:56;;;;;;;12.90;7.50;;;;;;;;;;5013889;28;20045;-79
2020/12/15 08:33:26;;;;;;;15.63;7.70;;;;;;;;;;5008392;28;20268;-79
2020/12/15 08:35:53;;;;;;;15.93;8.47;;;;;;;;;;5008041;28;20096;-78
2020/12/15 08:38:20;;;;;;;11.60;7.43;;;;;;;;;;5004812;28;20068;-78
2020/12/15 08:40:52;;;;;;;14.87;8.17;;;;;;;;;;5021143;28;20489;-78
2020/12/15 08:43:19;;;;;;;14.87;8.40;;;;;;;;;;5006007;28;20057;-78
2020/12/15 08:45:45;;;;;;;13.57;7.97;;;;;;;;;;5006218;28;20029;-78
2020/12/15 08:48:16;;;;;;;13.13;8.47;;;;;;;;;;5011639;28;20025;-80
2020/12/15 08:50:42;;;;;;;14.93;8.43;;;;;;;;;;5030928;28;20028;-81
2020/12/15 08:53:08;;;;;;;14.83;8.23;;;;;;;;;;5020031;28;20071;-79
2020/12/15 08:55:35;;;;;;;14.90;8.20;;;;;;;;;;5017753;28;20381;-77
2020/12/15 08:58:02;;;;;;;16.80;9.43;;;;;;;;;;5022923;28;20027;-78
2020/12/15 09:00:37;;;;;;;14.63;9.00;;;;;;;;;;5006478;28;20032;-78
2020/12/15 09:03:17;;;;;;;16.20;8.77;;;;;;;;;;5016911;28;20408;-78
2020/12/15 09:05:56;;;;;;;12.70;7.97;;;;;;;;;;5006541;28;20030;-78
2020/12/15 09:08:24;;;;;;;15.23;8.33;;;;;;;;;;5007098;28;20042;-78
2020/12/15 09:10:50;;;;;;;13.13;7.67;;;;;;;;;;5007344;28;20029;-79
2020/12/15 09:13:16;;;;;;;13.07;7.50;;;;;;;;;;5009011;28;20034;-79
2020/12/15 09:15:58;;;;;;;13.77;8.43;;;;;;;;;;5009001;28;20040;-79
2020/12/15 09:18:30;;;;;;;12.57;7.23;;;;;;;;;;5009004;28;20573;-80
2020/12/15 09:20:57;;;;;;;13.70;7.87;;;;;;;;;;5014557;28;20025;-81
2020/12/15 09:23:26;;;;;;;12.53;8.53;;;;;;;;;;5020878;28;20030;-80
2020/12/15 09:25:54;;;;;;;12.97;7.70;;;;;;;;;;5007663;28;20030;-79
2020/12/15 09:28:27;;;;;;;14.73;8.30;;;;;;;;;;5006604;28;20026;-79
2020/12/15 09:30:53;;;;;;;10.88;7.43;;;;;;;;;;5008577;28;20029;-79
2020/12/15 09:33:20;;;;;;;13.60;8.03;;;;;;;;;;5008888;28;20084;-79
2020/12/15 09:35:47;;;;;;;13.57;7.83;;;;;;;;;;5008964;28;20022;-79
2020/12/15 09:38:14;;;;;;;14.07;8.73;;;;;;;;;;5008360;28;20045;-79
2020/12/15 09:40:40;;;;;;;10.50;7.33;;;;;;;;;;5008634;28;20095;-79
2020/12/15 09:43:06;;;;;;;11.67;7.83;;;;;;;;;;5021193;28;20033;-78
2020/12/15 09:45:32;;;;;;;12.90;8.03;;;;;;;;;;5014978;28;20493;-79
2020/12/15 09:47:59;;;;;;;17.00;8.23;;;;;;;;;;5008110;28;20048;-79
2020/12/15 09:50:26;;;;;;;13.17;7.70;;;;;;;;;;5006584;28;20022;-78
2020/12/15 09:52:52;;;;;;;15.43;9.13;;;;;;;;;;5007377;28;20026;-79
2020/12/15 09:55:18;;;;;;;16.83;10.20;;;;;;;;;;5006980;28;20763;-79
2020/12/15 09:57:44;;;;;;;16.23;9.13;;;;;;;;;;5007058;28;20030;-78
2020/12/15 10:00:10;;;;;;;12.13;8.33;;;;;;;;;;5006248;28;20046;-78
2020/12/15 10:02:36;;;;;;;12.40;8.33;;;;;;;;;;5007327;28;20056;-78
2020/12/15 10:05:02;;;;;;;12.33;7.33;;;;;;;;;;5006948;28;20108;-78
2020/12/15 10:07:28;;;;;;;12.10;7.83;;;;;;;;;;5005337;28;20026;-78
2020/12/15 10:09:57;;;;;;;12.33;8.03;;;;;;;;;;5021543;28;20021;-79
2020/12/15 10:12:24;;;;;;;12.57;7.60;;;;;;;;;;5001009;28;20026;-78
2020/12/15 10:14:50;;;;;;;10.43;7.60;;;;;;;;;;5007280;28;20030;-77
2020/12/15 10:17:16;;;;;;;12.97;6.97;;;;;;;;;;5009260;28;20030;-78
2020/12/15 10:19:43;;;;;;;11.77;7.43;;;;;;;;;;5008785;28;20025;-78
2020/12/15 10:22:09;;;;;;;11.17;8.07;;;;;;;;;;4997362;28;21073;-78
2020/12/15 10:24:35;;;;;;;12.33;8.27;;;;;;;;;;5008659;28;20034;-78
2020/12/15 10:27:01;;;;;;;12.77;8.37;;;;;;;;;;4991951;28;20033;-78
2020/12/15 10:29:29;;;;;;;15.00;8.33;;;;;;;;;;5009624;28;20041;-77
2020/12/15 10:31:56;;;;;;;12.33;8.47;;;;;;;;;;5010104;28;20117;-78
2020/12/15 10:34:22;;;;;;;12.70;7.50;;;;;;;;;;5020102;28;20054;-78
2020/12/15 10:36:50;;;;;;;14.40;8.60;;;;;;;;;;5007958;28;20033;-78
2020/12/15 10:39:17;;;;;;;16.80;8.13;;;;;;;;;;5007255;28;20042;-78
2020/12/15 10:41:43;;;;;;;11.27;7.83;;;;;;;;;;5031895;28;20038;-78
2020/12/15 10:44:15;;;;;;;12.47;8.10;;;;;;;;;;5011140;28;20034;-78
2020/12/15 10:46:42;;;;;;;10.83;6.60;;;;;;;;;;5006219;28;20116;-78
2020/12/15 10:49:08;;;;;;;12.53;6.93;;;;;;;;;;5036702;28;20029;-78
2020/12/15 10:51:35;;;;;;;13.10;7.60;;;;;;;;;;5009222;28;20014;-77
2020/12/15 10:54:01;;;;;;;12.30;7.43;;;;;;;;;;5009623;28;20081;-78
2020/12/15 10:56:27;;;;;;;10.33;6.97;;;;;;;;;;5012373;28;20038;-78
2020/12/15 10:58:53;;;;;;;11.40;7.80;;;;;;;;;;5028904;28;20056;-78
2020/12/15 11:01:23;;;;;;;12.77;7.40;;;;;;;;;;5023017;28;20022;-78
2020/12/15 11:03:52;;;;;;;12.90;7.23;;;;;;;;;;5010277;28;20058;-79
2020/12/15 11:06:28;;;;;;;;;;;;;;;;;;;;;
2020/12/15 11:09:14;;;;;;;;;;;;;;;;;;;;;
2020/12/15 11:11:52;;;;;;;14.77;8.27;;;;;;;;;;5009719;28;20034;-78
2020/12/15 11:14:36;;;;;;;12.80;8.27;;;;;;;;;;5011758;28;20022;-79
2020/12/15 11:17:12;;;;;;;;;;;;;;;;;;;;;
2020/12/15 11:19:58;;;;;;;11.77;7.73;;;;;;;;;;5011599;28;20029;-79
2020/12/15 11:22:25;;;;;;;13.43;7.27;;;;;;;;;;4999643;28;20033;-78
2020/12/15 11:24:51;;;;;;;12.07;6.80;;;;;;;;;;4996692;28;20066;-78
2020/12/15 11:27:18;;;;;;;10.27;6.07;;;;;;;;;;5023708;28;20032;-78
2020/12/15 11:29:45;;;;;;;11.93;6.27;;;;;;;;;;5007976;28;20021;-78
2020/12/15 11:32:11;;;;;;;11.37;6.03;;;;;;;;;;5007372;28;20113;-78
2020/12/15 11:34:37;;;;;;;10.60;6.43;;;;;;;;;;5009857;28;20032;-78
2020/12/15 11:37:04;;;;;;;10.03;6.23;;;;;;;;;;5007422;28;20033;-78
2020/12/15 11:39:31;;;;;;;8.90;6.07;;;;;;;;;;5009084;28;20029;-77
2020/12/15 11:41:57;;;;;;;15.50;6.43;;;;;;;;;;5008709;28;20037;-78
2020/12/15 11:44:23;;;;;;;12.97;7.57;;;;;;;;;;5008780;28;20046;-77
2020/12/15 11:46:49;;;;;;;10.23;6.23;;;;;;;;;;4989632;28;20474;-77
2020/12/15 11:49:15;;;;;;;10.93;6.57;;;;;;;;;;4997208;28;20049;-77
2020/12/15 11:51:41;;;;;;;10.73;6.67;;;;;;;;;;5009429;28;20113;-78
2020/12/15 11:54:07;;;;;;;13.80;6.50;;;;;;;;;;5008411;28;20425;-78
2020/12/15 11:56:33;;;;;;;15.47;7.20;;;;;;;;;;5009295;28;20052;-78
2020/12/15 11:58:59;;;;;;;13.70;8.77;;;;;;;;;;5005844;28;20605;-77
2020/12/15 12:01:25;;;;;;;13.20;7.60;;;;;;;;;;5009865;28;20065;-78
2020/12/15 12:03:51;;;;;;;11.93;7.40;;;;;;;;;;5008972;28;20045;-78
2020/12/15 12:06:18;;;;;;;12.37;7.73;;;;;;;;;;5007475;28;20528;-78
2020/12/15 12:08:44;;;;;;;13.23;8.30;;;;;;;;;;5019050;28;20171;-78
2020/12/15 12:11:11;;;;;;;12.27;7.67;;;;;;;;;;5022058;28;20830;-79
2020/12/15 12:13:37;;;;;;;14.10;10.27;;;;;;;;;;5015522;28;20734;-77
2020/12/15 12:16:04;;;;;;;12.23;8.83;;;;;;;;;;5007472;28;20042;-78
2020/12/15 12:18:30;;;;;;;13.87;9.00;;;;;;;;;;5027066;28;20048;-79
2020/12/15 12:20:56;;;;;;;14.53;8.53;;;;;;;;;;5011105;28;20116;-78
2020/12/15 12:23:22;;;;;;;16.63;9.63;;;;;;;;;;5012493;28;20033;-79
2020/12/15 12:25:48;;;;;;;13.47;9.83;;;;;;;;;;5011754;28;20083;-78
2020/12/15 12:28:14;;;;;;;14.27;9.93;;;;;;;;;;5012388;28;20120;-79
2020/12/15 12:30:40;;;;;;;14.53;9.73;;;;;;;;;;5016876;28;20030;-79
2020/12/15 12:33:07;;;;;;;11.93;9.40;;;;;;;;;;5013403;28;20025;-79
2020/12/15 12:35:35;;;;;;;16.47;9.80;;;;;;;;;;5010599;28;20084;-78
2020/12/15 12:38:01;;;;;;;16.10;9.10;;;;;;;;;;5012690;28;20040;-79
2020/12/15 12:40:27;;;;;;;16.40;9.27;;;;;;;;;;5016195;28;20115;-80
2020/12/15 12:42:57;;;;;;;14.27;9.30;;;;;;;;;;5014882;28;20034;-79
2020/12/15 12:45:23;;;;;;;15.57;9.40;;;;;;;;;;5004246;28;20117;-79
2020/12/15 12:47:49;;;;;;;15.47;9.67;;;;;;;;;;5011995;28;20030;-79
2020/12/15 12:50:15;;;;;;;13.80;8.43;;;;;;;;;;5013338;28;20460;-79
2020/12/15 12:52:42;;;;;;;14.47;8.90;;;;;;;;;;5017859;28;20061;-80
2020/12/15 12:55:08;;;;;;;13.83;9.13;;;;;;;;;;5015743;28;20022;-79
2020/12/15 12:57:35;;;;;;;16.50;9.10;;;;;;;;;;5017314;28;20029;-79
2020/12/15 13:00:01;;;;;;;15.93;10.23;;;;;;;;;;5016880;28;20029;-79
2020/12/15 13:02:27;;;;;;;14.90;10.40;;;;;;;;;;5024769;28;20025;-79
2020/12/15 13:04:53;;;;;;;14.23;9.93;;;;;;;;;;5011379;28;20029;-79
2020/12/15 13:07:19;;;;;;;17.57;10.40;;;;;;;;;;5016666;28;20125;-80
2020/12/15 13:09:47;;;;;;;19.10;10.60;;;;;;;;;;5013700;28;20260;-80
2020/12/15 13:12:13;;;;;;;17.17;9.83;;;;;;;;;;5015657;28;20044;-80
2020/12/15 13:14:39;;;;;;;18.60;10.63;;;;;;;;;;5025320;28;20038;-79
2020/12/15 13:17:06;;;;;;;17.13;10.90;;;;;;;;;;5020556;28;20029;-78
2020/12/15 13:19:32;;;;;;;18.77;11.97;;;;;;;;;;5014582;28;20033;-79
2020/12/15 13:21:58;;;;;;;15.83;9.37;;;;;;;;;;5023573;28;20100;-79
2020/12/15 13:24:24;;;;;;;14.37;9.50;;;;;;;;;;5019894;28;20025;-79
2020/12/15 13:26:50;;;;;;;26.87;14.80;;;;;;;;;;5000898;28;20030;-78
2020/12/15 13:29:16;;;;;;;21.33;11.20;;;;;;;;;;5018395;28;20056;-81
2020/12/15 13:31:48;;;;;;;17.07;10.10;;;;;;;;;;5020687;28;20072;-81
2020/12/15 13:34:14;;;;;;;15.53;9.17;;;;;;;;;;5014429;28;20057;-80
2020/12/15 13:36:42;;;;;;;14.63;9.60;;;;;;;;;;5027580;28;20044;-80
2020/12/15 13:39:08;;;;;;;15.37;10.03;;;;;;;;;;5008692;28;20062;-80
2020/12/15 13:41:34;;;;;;;16.70;10.90;;;;;;;;;;5018244;28;20034;-80
2020/12/15 13:44:00;;;;;;;18.50;10.97;;;;;;;;;;5014558;28;20601;-80
2020/12/15 13:46:26;;;;;;;25.57;13.40;;;;;;;;;;5012291;28;20463;-80
2020/12/15 13:48:52;;;;;;;23.20;13.47;;;;;;;;;;5014334;28;20076;-79
2020/12/15 13:51:18;;;;;;;17.43;11.07;;;;;;;;;;5013903;28;20426;-79
2020/12/15 13:53:44;;;;;;;17.90;11.00;;;;;;;;;;5015714;28;20070;-79
2020/12/15 13:56:11;;;;;;;19.47;11.73;;;;;;;;;;5023213;28;20060;-78
2020/12/15 13:58:37;;;;;;;17.10;10.77;;;;;;;;;;5033963;28;20099;-79
2020/12/15 14:01:03;;;;;;;24.03;11.37;;;;;;;;;;5018034;28;20038;-79
2020/12/15 14:03:29;;;;;;;17.20;10.50;;;;;;;;;;5016172;28;20034;-79
2020/12/15 14:05:55;;;;;;;13.90;9.00;;;;;;;;;;5014966;28;20040;-77
2020/12/15 14:08:21;;;;;;;15.13;9.20;;;;;;;;;;5018737;28;20061;-78
2020/12/15 14:10:47;;;;;;;15.83;9.70;;;;;;;;;;5024650;28;20108;-78
2020/12/15 14:13:13;;;;;;;16.13;10.23;;;;;;;;;;5028874;28;20029;-79
2020/12/15 14:15:42;;;;;;;14.63;9.53;;;;;;;;;;5024520;28;20025;-79
2020/12/15 14:18:09;;;;;;;14.73;10.23;;;;;;;;;;5019389;28;20037;-79
2020/12/15 14:20:36;;;;;;;16.33;10.47;;;;;;;;;;5021537;28;20084;-79
2020/12/15 14:23:02;;;;;;;18.97;12.10;;;;;;;;;;5029969;28;20033;-78
2020/12/15 14:25:28;;;;;;;15.53;10.73;;;;;;;;;;5032034;28;20175;-79
2020/12/15 14:27:54;;;;;;;15.50;10.93;;;;;;;;;;5032465;28;20029;-78
2020/12/15 14:30:20;;;;;;;17.37;10.53;;;;;;;;;;5035478;28;20034;-79
2020/12/15 14:32:47;;;;;;;17.80;12.63;;;;;;;;;;5024225;28;20032;-79
2020/12/15 14:35:13;;;;;;;16.70;10.53;;;;;;;;;;5025131;28;20504;-79